Time;durP1;ratioP1;P1;durP2;ratioP2;P2;SDS_P1;SDS_P2;PMS_P1;PMS_P2;Temp;Humidity;BMP_temperature;BMP_pressure;BME280_temperature;BME280_humidity;BME280_pressure;Samples;Min_cycle;Max_cycle;Signal;HPM_P1;HPM_P2
2024/01/28 00:14:00;;;;;;;65.90;20.40;;;;;;;5.48;95.79;101988.29;681756;1266;139263;-82
2024/01/28 00:29:05;;;;;;;24.80;9.30;;;;;;;5.70;95.07;101981.72;681558;1262;139028;-81
2024/01/28 00:44:09;;;;;;;32.50;9.10;;;;;;;5.74;95.22;101978.76;681439;1261;138846;-81
2024/01/28 00:59:15;;;;;;;44.80;11.70;;;;;;;5.73;96.18;101987.16;681370;1262;141224;-82
2024/01/28 01:14:19;;;;;;;55.10;20.90;;;;;;;5.80;96.88;101999.89;681292;1262;140021;-81
2024/01/28 01:29:24;;;;;;;19.40;6.50;;;;;;;5.89;96.79;102027.66;681307;1264;139612;-81
2024/01/28 01:44:27;;;;;;;48.60;18.20;;;;;;;5.96;97.13;102044.23;681785;1265;139892;-82
2024/01/28 01:59:33;;;;;;;23.50;8.00;;;;;;;6.06;96.24;102050.46;681641;1265;139135;-81
2024/01/28 02:14:39;;;;;;;13.10;5.70;;;;;;;6.18;95.74;102054.66;681722;1266;138922;-81
2024/01/28 02:29:43;;;;;;;25.10;9.60;;;;;;;6.10;95.65;102044.55;681595;1262;139677;-81
2024/01/28 02:44:47;;;;;;;33.50;11.00;;;;;;;6.20;95.67;102044.13;681807;1265;140643;-81
2024/01/28 02:59:51;;;;;;;30.80;9.10;;;;;;;6.17;95.70;102055.04;681819;1262;140212;-81
2024/01/28 03:14:57;;;;;;;40.30;13.50;;;;;;;6.15;95.69;102081.18;681640;1265;139741;-81
2024/01/28 03:30:00;;;;;;;122.30;31.60;;;;;;;6.17;96.02;102097.95;681756;1263;139884;-81
2024/01/28 03:45:05;;;;;;;28.80;9.40;;;;;;;6.13;96.42;102118.64;681771;1267;140706;-81
2024/01/28 04:00:11;;;;;;;12.70;5.10;;;;;;;6.07;96.32;102128.25;681665;1262;139520;-81
2024/01/28 04:15:17;;;;;;;9.10;4.20;;;;;;;5.97;97.23;102139.54;681632;1263;141093;-80
2024/01/28 04:30:21;;;;;;;15.90;5.70;;;;;;;5.85;97.60;102138.42;681590;1263;139428;-81
2024/01/28 04:45:27;;;;;;;19.50;6.90;;;;;;;5.76;98.63;102154.05;681499;1262;139360;-82
2024/01/28 05:00:31;;;;;;;11.00;4.30;;;;;;;5.82;99.06;102166.86;681767;1266;139082;-81
2024/01/28 05:15:36;;;;;;;13.20;5.90;;;;;;;5.80;99.00;102144.70;681740;1265;139506;-81
2024/01/28 05:30:40;;;;;;;13.90;5.60;;;;;;;5.81;99.57;102153.17;681802;1265;140501;-81
2024/01/28 05:45:44;;;;;;;15.30;5.30;;;;;;;5.79;100.00;102171.48;681508;1266;139438;-81
2024/01/28 06:00:49;;;;;;;16.50;6.50;;;;;;;5.85;100.00;102188.98;681558;1265;139928;-81
2024/01/28 06:15:54;;;;;;;30.80;10.80;;;;;;;5.83;100.00;102206.39;681611;1266;138909;-81
2024/01/28 06:30:58;;;;;;;26.50;9.60;;;;;;;5.87;100.00;102214.79;681478;1267;140278;-81
2024/01/28 06:46:02;;;;;;;33.30;11.40;;;;;;;5.94;100.00;102232.56;681502;1266;139236;-81
2024/01/28 07:01:11;;;;;;;16.50;7.10;;;;;;;5.95;100.00;102240.87;681604;1266;141588;-82
2024/01/28 07:16:16;;;;;;;40.60;22.20;;;;;;;5.99;100.00;102254.14;681456;1263;139273;-81
2024/01/28 07:31:20;;;;;;;35.50;13.40;;;;;;;6.06;100.00;102266.02;681144;1266;342078;-81
2024/01/28 07:46:23;;;;;;;43.80;15.50;;;;;;;6.20;100.00;102269.70;681218;1266;141315;-80
2024/01/28 08:01:30;;;;;;;34.20;14.00;;;;;;;6.22;100.00;102259.15;681394;1266;139931;-81
2024/01/28 08:16:34;;;;;;;32.20;15.40;;;;;;;6.29;100.00;102269.52;681493;1265;139862;-81
2024/01/28 08:31:40;;;;;;;30.20;15.60;;;;;;;6.37;100.00;102278.09;681147;1269;140156;-81
2024/01/28 08:46:47;;;;;;;26.30;11.60;;;;;;;6.49;100.00;102296.90;681089;1266;139444;-82
2024/01/28 09:01:55;;;;;;;24.00;10.90;;;;;;;6.61;100.00;102315.20;681383;1269;140271;-83
2024/01/28 09:17:02;;;;;;;29.60;12.60;;;;;;;6.68;100.00;102333.39;681420;1264;141327;-83
2024/01/28 09:32:08;;;;;;;26.30;12.50;;;;;;;6.92;100.00;102344.98;681539;1267;140767;-82
2024/01/28 09:47:12;;;;;;;30.50;14.40;;;;;;;7.21;100.00;102358.95;681309;1262;140414;-82
2024/01/28 10:02:17;;;;;;;55.10;27.90;;;;;;;7.49;100.00;102365.63;681571;1276;139517;-82
2024/01/28 10:17:22;;;;;;;73.40;30.10;;;;;;;7.81;100.00;102378.38;681423;1264;139956;-82
2024/01/28 10:32:28;;;;;;;57.20;26.80;;;;;;;7.85;100.00;102367.41;681188;1268;140724;-82
2024/01/28 10:47:36;;;;;;;25.60;12.90;;;;;;;8.20;100.00;102381.21;681405;1264;140592;-82
2024/01/28 11:02:44;;;;;;;66.90;31.80;;;;;;;8.17;99.72;102385.88;681542;1264;140282;-82
2024/01/28 11:17:51;;;;;;;59.80;22.10;;;;;;;8.26;98.50;102382.49;681239;1269;139201;-80
2024/01/28 11:33:11;;;;;;;23.10;11.80;;;;;;;8.11;98.76;102381.77;681523;1267;141000;-81
2024/01/28 11:48:21;;;;;;;58.30;23.50;;;;;;;8.21;98.25;102381.69;681643;1266;139753;-81
2024/01/28 12:03:30;;;;;;;33.50;16.60;;;;;;;8.30;97.18;102382.68;681316;1267;139883;-82
2024/01/28 12:18:41;;;;;;;43.20;19.20;;;;;;;8.36;96.42;102396.88;681811;1267;140522;-82
2024/01/28 12:33:50;;;;;;;28.50;9.70;;;;;;;8.16;95.10;102394.09;681352;1264;140993;-82
2024/01/28 12:48:58;;;;;;;22.40;10.60;;;;;;;8.06;93.26;102389.87;681907;1264;139448;-83
2024/01/28 13:04:07;;;;;;;15.20;6.50;;;;;;;8.09;92.74;102381.02;681441;1264;140542;-83
2024/01/28 13:19:16;;;;;;;20.80;9.50;;;;;;;7.96;92.02;102390.81;681413;1267;140059;-83
2024/01/28 13:34:24;;;;;;;100.20;38.70;;;;;;;7.89;91.40;102394.23;681474;1265;139828;-82
2024/01/28 13:49:31;;;;;;;44.10;19.60;;;;;;;7.85;91.34;102403.64;681777;1266;140367;-82
2024/01/28 14:04:40;;;;;;;18.70;8.20;;;;;;;7.71;91.03;102395.36;681369;1268;140488;-82
2024/01/28 14:19:48;;;;;;;42.00;19.10;;;;;;;7.61;89.73;102391.06;681341;1264;139002;-81
2024/01/28 14:34:55;;;;;;;26.70;12.70;;;;;;;7.44;89.53;102393.16;681386;1263;140992;-80
2024/01/28 14:50:02;;;;;;;26.60;11.30;;;;;;;7.34;89.24;102390.61;681516;1265;140424;-81
2024/01/28 15:05:10;;;;;;;75.80;22.30;;;;;;;7.28;89.47;102400.63;681292;1266;139049;-80
2024/01/28 15:20:20;;;;;;;107.70;37.20;;;;;;;7.30;89.83;102412.52;681513;1261;138984;-81
2024/01/28 15:35:28;;;;;;;140.60;54.70;;;;;;;7.26;90.04;102424.70;681459;1266;140522;-81
2024/01/28 15:50:37;;;;;;;47.60;24.50;;;;;;;7.19;90.07;102440.28;681525;1267;140738;-82
2024/01/28 16:05:44;;;;;;;31.80;14.20;;;;;;;7.02;89.87;102418.84;681475;1262;140130;-81
2024/01/28 16:20:50;;;;;;;58.00;24.30;;;;;;;6.86;89.48;102399.82;681333;1262;139155;-81
2024/01/28 16:35:56;;;;;;;43.40;19.60;;;;;;;6.78;89.12;102374.35;681498;1266;140350;-81
2024/01/28 16:51:04;;;;;;;53.90;22.20;;;;;;;6.78;88.94;102377.32;681292;1262;140377;-82
2024/01/28 17:06:11;;;;;;;69.50;28.40;;;;;;;6.78;89.29;102389.84;681488;1262;139116;-81
2024/01/28 17:21:25;;;;;;;52.00;22.10;;;;;;;6.73;89.52;102408.46;681357;1267;140058;-81
2024/01/28 17:36:35;;;;;;;35.20;14.80;;;;;;;6.65;88.98;102420.60;681638;1262;140102;-82
2024/01/28 17:51:43;;;;;;;65.10;26.60;;;;;;;6.71;88.34;102437.60;681220;1265;141579;-81
2024/01/28 18:06:49;;;;;;;38.10;16.10;;;;;;;6.67;87.95;102462.80;681451;1262;139099;-81
2024/01/28 18:21:57;;;;;;;28.60;12.30;;;;;;;6.56;87.68;102469.25;681506;1265;139240;-82
2024/01/28 18:37:02;;;;;;;;;;;;;;;6.58;87.48;102478.75;681487;1263;138956;-82
2024/01/28 18:52:12;;;;;;;46.10;22.90;;;;;;;6.58;87.16;102475.13;681326;1265;126383;-81
2024/01/28 19:07:20;;;;;;;93.00;49.70;;;;;;;6.52;87.68;102459.33;681348;1263;139038;-80
2024/01/28 19:22:25;;;;;;;42.20;19.80;;;;;;;6.54;87.20;102464.30;680100;1267;1695611;-80
2024/01/28 19:37:33;;;;;;;55.30;25.80;;;;;;;6.52;87.36;102458.27;681356;1273;139795;-81
2024/01/28 19:52:40;;;;;;;46.50;22.10;;;;;;;6.36;87.52;102450.17;681175;1265;140434;-83
2024/01/28 20:07:47;;;;;;;47.60;21.50;;;;;;;6.33;87.80;102453.57;681262;1266;140301;-80
2024/01/28 20:22:54;;;;;;;39.50;19.50;;;;;;;6.29;87.50;102442.75;681399;1263;141398;-82
2024/01/28 20:38:02;;;;;;;44.00;19.20;;;;;;;6.27;86.99;102431.90;681208;1267;140544;-82
2024/01/28 20:53:08;;;;;;;43.90;19.30;;;;;;;6.12;87.08;102419.73;681164;1266;141401;-82
2024/01/28 21:08:18;;;;;;;33.40;18.10;;;;;;;6.18;86.48;102419.73;681293;1265;139826;-83
2024/01/28 21:23:29;;;;;;;36.80;17.20;;;;;;;6.12;86.77;102414.52;681268;1268;140224;-82
2024/01/28 21:38:38;;;;;;;30.60;16.20;;;;;;;5.99;86.24;102423.28;681627;1263;139194;-81
2024/01/28 21:53:46;;;;;;;33.20;14.50;;;;;;;5.89;86.07;102428.15;681257;1263;140884;-80
2024/01/28 22:08:53;;;;;;;19.80;12.10;;;;;;;5.73;84.68;102430.91;681527;1265;139584;-81
2024/01/28 22:24:01;;;;;;;22.90;11.80;;;;;;;5.59;83.77;102425.50;681390;1263;139856;-81
2024/01/28 22:39:11;;;;;;;25.10;11.90;;;;;;;5.61;84.61;102411.37;681303;1263;138952;-82
2024/01/28 22:54:17;;;;;;;24.00;13.80;;;;;;;5.48;84.21;102405.38;681429;1266;139886;-82
2024/01/28 23:09:23;;;;;;;24.70;13.70;;;;;;;5.39;84.59;102398.17;681384;1267;139995;-81
2024/01/28 23:24:31;;;;;;;26.80;14.00;;;;;;;5.20;85.35;102386.30;681445;1266;140547;-81
2024/01/28 23:39:38;;;;;;;38.90;17.20;;;;;;;4.94;86.05;102381.05;681375;1262;140610;-80
2024/01/28 23:54:48;;;;;;;33.50;17.50;;;;;;;4.67;85.78;102382.90;681491;1266;140491;-80
